Alpine, Mississippi
Current Conditions -  °F | °C
As of 9:53 PM on Friday 31 Oct 2014 (Local Time) from KTUP Reporting Station
Clear Clear  
Wind Chill: 36°   Ceiling: Unl
Heat Index: 43°   Visibility: 10mi
Dew Point: 25°   Wind: 14mph
Humidity: 49%   Direction: 10°N
Pressure: 30.26"   Gusts: NA
Location:  34.4333°N, 88.8629°W
Report Text: KTUP 010253Z AUTO 01012KT 10SM CLR 06/M04 A3026 RMK AO2 SLP246 T00611039 51029
Loading
Personal Weather Stations






























Interactive Weather Map
Tropical Storm Tracking
New forecast layout! Learn more

10-Day Weather Forecast

Advertisements
Track Severe Weather on mobile